Time;durP1;ratioP1;P1;durP2;ratioP2;P2;SDS_P1;SDS_P2;PMS_P1;PMS_P2;Temp;Humidity;BMP_temperature;BMP_pressure;BME280_temperature;BME280_humidity;BME280_pressure;Samples;Min_cycle;Max_cycle;Signal;HPM_P1;HPM_P2
2023/06/30 00:01:21;;;;;;;14.02;7.07;;;;;;;;;;5034656;28;20047;-71
2023/06/30 00:03:46;;;;;;;16.58;7.88;;;;;;;;;;5037515;28;20048;-70
2023/06/30 00:06:12;;;;;;;8.90;6.63;;;;;;;;;;5043949;28;20045;-71
2023/06/30 00:08:37;;;;;;;12.60;7.40;;;;;;;;;;5047275;28;20119;-71
2023/06/30 00:11:03;;;;;;;10.20;7.32;;;;;;;;;;5052004;28;20124;-71
2023/06/30 00:13:28;;;;;;;11.95;6.95;;;;;;;;;;5028873;28;20038;-71
2023/06/30 00:15:56;;;;;;;9.30;7.40;;;;;;;;;;5054236;28;20528;-71
2023/06/30 00:18:21;;;;;;;12.50;7.05;;;;;;;;;;5036096;28;20029;-72
2023/06/30 00:20:46;;;;;;;10.18;6.20;;;;;;;;;;5034961;28;20048;-72
2023/06/30 00:23:15;;;;;;;11.27;6.75;;;;;;;;;;5054223;28;20036;-71
2023/06/30 00:25:40;;;;;;;12.13;6.57;;;;;;;;;;5039182;28;20037;-71
2023/06/30 00:28:06;;;;;;;14.65;7.65;;;;;;;;;;5051920;28;20474;-71
2023/06/30 00:30:31;;;;;;;10.50;6.63;;;;;;;;;;5030001;28;20044;-71
2023/06/30 00:32:56;;;;;;;9.02;6.57;;;;;;;;;;5034428;28;20033;-71
2023/06/30 00:35:22;;;;;;;9.75;7.32;;;;;;;;;;5049073;28;20044;-71
2023/06/30 00:37:47;;;;;;;10.05;6.60;;;;;;;;;;5032812;28;20040;-72
2023/06/30 00:40:16;;;;;;;15.55;6.95;;;;;;;;;;5035546;28;20111;-70
2023/06/30 00:42:41;;;;;;;9.77;6.88;;;;;;;;;;5029216;28;20021;-71
2023/06/30 00:45:07;;;;;;;11.52;7.13;;;;;;;;;;5047574;28;20031;-71
2023/06/30 00:47:33;;;;;;;12.77;7.45;;;;;;;;;;5039377;28;20037;-71
2023/06/30 00:49:58;;;;;;;14.68;7.40;;;;;;;;;;5064037;28;20112;-70
2023/06/30 00:52:24;;;;;;;9.90;6.97;;;;;;;;;;5041204;28;20024;-71
2023/06/30 00:54:50;;;;;;;11.20;7.28;;;;;;;;;;5049602;28;20474;-62
2023/06/30 00:57:15;;;;;;;12.88;6.88;;;;;;;;;;5038698;28;20028;-71
2023/06/30 00:59:41;;;;;;;10.52;7.35;;;;;;;;;;5045455;28;20041;-71
2023/06/30 01:02:14;;;;;;;13.98;7.53;;;;;;;;;;5025867;28;20048;-71
2023/06/30 01:04:47;;;;;;;12.20;7.85;;;;;;;;;;5042997;28;20119;-71
2023/06/30 01:07:34;;;;;;;12.70;8.23;;;;;;;;;;5018557;28;20525;-71
2023/06/30 01:10:23;;;;;;;12.27;8.13;;;;;;;;;;5041425;28;20021;-70
2023/06/30 01:12:49;;;;;;;16.95;8.98;;;;;;;;;;5050595;28;20505;-71
2023/06/30 01:15:15;;;;;;;16.27;8.55;;;;;;;;;;5030262;28;20044;-67
2023/06/30 01:17:46;;;;;;;16.30;8.55;;;;;;;;;;5037767;28;20017;-71
2023/06/30 01:20:14;;;;;;;12.15;7.95;;;;;;;;;;5037193;28;20033;-78
2023/06/30 01:23:09;;;;;;;13.98;8.65;;;;;;;;;;5017401;28;20021;-73
2023/06/30 01:25:35;;;;;;;23.38;10.02;;;;;;;;;;5046081;28;20061;-73
2023/06/30 01:28:02;;;;;;;16.20;9.68;;;;;;;;;;5047148;28;20388;-68
2023/06/30 01:30:29;;;;;;;19.85;10.20;;;;;;;;;;5036686;28;20036;-69
2023/06/30 01:32:55;;;;;;;12.50;9.35;;;;;;;;;;5041956;28;20029;-77
2023/06/30 01:35:22;;;;;;;14.35;9.75;;;;;;;;;;5032149;28;20040;-74
2023/06/30 01:37:48;;;;;;;13.38;9.90;;;;;;;;;;5048203;28;20195;-74
2023/06/30 01:40:13;;;;;;;14.50;10.07;;;;;;;;;;5057636;28;20060;-73
2023/06/30 01:42:39;;;;;;;15.05;10.18;;;;;;;;;;5050673;28;20021;-73
2023/06/30 01:45:06;;;;;;;14.07;10.07;;;;;;;;;;5037566;28;20045;-71
2023/06/30 01:47:32;;;;;;;14.73;10.63;;;;;;;;;;5034244;28;20044;-71
2023/06/30 01:49:58;;;;;;;15.98;10.80;;;;;;;;;;5031774;28;20030;-71
2023/06/30 01:52:23;;;;;;;17.75;10.63;;;;;;;;;;5016177;28;20125;-71
2023/06/30 01:54:48;;;;;;;17.23;10.63;;;;;;;;;;5047776;28;20028;-71
2023/06/30 01:57:14;;;;;;;18.17;11.98;;;;;;;;;;5052838;28;20025;-70
2023/06/30 01:59:39;;;;;;;16.30;11.52;;;;;;;;;;5053126;28;20096;-69
2023/06/30 02:02:05;;;;;;;14.93;10.70;;;;;;;;;;5054797;28;20033;-70
2023/06/30 02:04:30;;;;;;;17.75;11.40;;;;;;;;;;5035818;28;20108;-69
2023/06/30 02:06:56;;;;;;;18.83;10.73;;;;;;;;;;5032762;28;20041;-69
2023/06/30 02:09:21;;;;;;;15.60;10.82;;;;;;;;;;5055789;28;20025;-68
2023/06/30 02:11:47;;;;;;;22.25;11.32;;;;;;;;;;5050190;28;20036;-69
2023/06/30 02:14:12;;;;;;;15.85;11.55;;;;;;;;;;5022955;28;20033;-68
2023/06/30 02:16:38;;;;;;;16.58;11.00;;;;;;;;;;5057974;28;20072;-70
2023/06/30 02:19:03;;;;;;;15.52;10.95;;;;;;;;;;5055969;28;20060;-69
2023/06/30 02:21:28;;;;;;;14.20;11.05;;;;;;;;;;5024635;28;20096;-69
2023/06/30 02:23:54;;;;;;;14.57;10.68;;;;;;;;;;5039212;28;20032;-69
2023/06/30 02:26:19;;;;;;;13.55;10.65;;;;;;;;;;5039222;28;20037;-70
2023/06/30 02:28:45;;;;;;;17.05;11.13;;;;;;;;;;5055338;28;20032;-69
2023/06/30 02:31:10;;;;;;;16.35;10.48;;;;;;;;;;5050083;28;20037;-69
2023/06/30 02:33:35;;;;;;;12.38;10.90;;;;;;;;;;5046685;28;20509;-69
2023/06/30 02:36:03;;;;;;;20.48;10.82;;;;;;;;;;5033153;28;20124;-69
2023/06/30 02:38:29;;;;;;;16.80;11.07;;;;;;;;;;5033723;28;20025;-70
2023/06/30 02:40:54;;;;;;;13.85;10.40;;;;;;;;;;5057265;28;20037;-69
2023/06/30 02:43:20;;;;;;;16.65;10.90;;;;;;;;;;5033527;28;20537;-69
2023/06/30 02:45:45;;;;;;;27.80;12.35;;;;;;;;;;5025937;28;20039;-69
2023/06/30 02:48:11;;;;;;;17.27;11.50;;;;;;;;;;5049740;28;20356;-68
2023/06/30 02:50:36;;;;;;;12.73;11.00;;;;;;;;;;5034423;28;20051;-69
2023/06/30 02:53:02;;;;;;;15.35;11.30;;;;;;;;;;5037146;28;20360;-69
2023/06/30 02:55:28;;;;;;;16.67;10.93;;;;;;;;;;5053167;28;20119;-69
2023/06/30 02:57:54;;;;;;;15.38;11.40;;;;;;;;;;5057576;28;20110;-70
2023/06/30 03:00:20;;;;;;;17.77;10.95;;;;;;;;;;5053498;28;20037;-69
2023/06/30 03:02:45;;;;;;;14.75;11.55;;;;;;;;;;5056369;28;20028;-69
2023/06/30 03:05:11;;;;;;;14.88;10.88;;;;;;;;;;5037038;28;20037;-68
2023/06/30 03:07:36;;;;;;;15.45;11.20;;;;;;;;;;5053161;28;20071;-69
2023/06/30 03:10:02;;;;;;;17.02;10.93;;;;;;;;;;5052267;28;20052;-69
2023/06/30 03:12:28;;;;;;;13.88;10.90;;;;;;;;;;5043554;28;20088;-69
2023/06/30 03:14:53;;;;;;;14.50;11.30;;;;;;;;;;5021334;28;20844;-69
2023/06/30 03:17:19;;;;;;;14.30;11.00;;;;;;;;;;5037171;28;20073;-69
2023/06/30 03:19:44;;;;;;;16.05;12.18;;;;;;;;;;5026521;28;20025;-69
2023/06/30 03:22:10;;;;;;;18.40;11.70;;;;;;;;;;5041150;28;20071;-69
2023/06/30 03:24:35;;;;;;;17.48;11.00;;;;;;;;;;5053842;28;21267;-69
2023/06/30 03:27:01;;;;;;;17.17;11.00;;;;;;;;;;5048970;28;20052;-68
2023/06/30 03:29:26;;;;;;;15.23;11.55;;;;;;;;;;5054233;28;20025;-69
2023/06/30 03:31:52;;;;;;;17.20;12.10;;;;;;;;;;5047872;28;20047;-68
2023/06/30 03:34:17;;;;;;;13.40;11.40;;;;;;;;;;5042259;28;20039;-68
2023/06/30 03:36:43;;;;;;;17.65;11.07;;;;;;;;;;5038757;28;20033;-68
2023/06/30 03:39:08;;;;;;;15.65;12.27;;;;;;;;;;5039957;28;20115;-69
2023/06/30 03:41:34;;;;;;;15.18;11.55;;;;;;;;;;5054608;28;20041;-68
2023/06/30 03:43:59;;;;;;;15.50;11.70;;;;;;;;;;5040872;28;20053;-69
2023/06/30 03:46:25;;;;;;;17.42;11.95;;;;;;;;;;5051745;28;20120;-68
2023/06/30 03:48:50;;;;;;;17.33;12.40;;;;;;;;;;5049205;28;20028;-68
2023/06/30 03:51:16;;;;;;;15.60;12.48;;;;;;;;;;5027963;28;20033;-68
2023/06/30 03:53:42;;;;;;;16.17;11.35;;;;;;;;;;5018599;28;21281;-69
2023/06/30 03:56:07;;;;;;;17.17;12.40;;;;;;;;;;5044785;28;20033;-68
2023/06/30 03:58:33;;;;;;;17.40;12.27;;;;;;;;;;5054836;28;20525;-68
2023/06/30 04:00:58;;;;;;;18.48;12.40;;;;;;;;;;5042225;28;20041;-68
2023/06/30 04:03:24;;;;;;;17.60;12.55;;;;;;;;;;5051994;28;20108;-67
2023/06/30 04:05:49;;;;;;;16.70;12.40;;;;;;;;;;5053917;28;20112;-69
2023/06/30 04:08:15;;;;;;;14.98;12.45;;;;;;;;;;5035830;28;20023;-69
2023/06/30 04:10:40;;;;;;;17.00;12.73;;;;;;;;;;5037404;28;20029;-68
2023/06/30 04:13:06;;;;;;;18.42;12.80;;;;;;;;;;5020135;28;20478;-68
2023/06/30 04:15:31;;;;;;;15.32;12.18;;;;;;;;;;5054184;28;20049;-68
2023/06/30 04:17:57;;;;;;;21.17;12.18;;;;;;;;;;5056453;28;20096;-68
2023/06/30 04:20:22;;;;;;;16.08;11.90;;;;;;;;;;5054586;28;20037;-69
2023/06/30 04:22:48;;;;;;;19.35;12.05;;;;;;;;;;5041511;28;20013;-68
2023/06/30 04:25:13;;;;;;;17.77;12.68;;;;;;;;;;5050709;28;20051;-67
2023/06/30 04:27:39;;;;;;;18.75;12.50;;;;;;;;;;5018309;28;20029;-69
2023/06/30 04:30:07;;;;;;;15.25;12.27;;;;;;;;;;5035535;28;20037;-67
2023/06/30 04:32:33;;;;;;;17.60;12.15;;;;;;;;;;5036906;28;20545;-67
2023/06/30 04:34:58;;;;;;;19.85;13.13;;;;;;;;;;5039943;28;20035;-68
2023/06/30 04:37:28;;;;;;;19.83;13.27;;;;;;;;;;5036674;28;20036;-67
2023/06/30 04:39:58;;;;;;;18.13;13.32;;;;;;;;;;5040402;28;20028;-67
2023/06/30 04:42:23;;;;;;;16.60;12.90;;;;;;;;;;5050007;28;20029;-68
2023/06/30 04:44:49;;;;;;;18.40;13.82;;;;;;;;;;5030929;28;20032;-68
2023/06/30 04:47:18;;;;;;;16.38;13.18;;;;;;;;;;5035701;28;20045;-67
2023/06/30 04:49:43;;;;;;;17.35;13.60;;;;;;;;;;5042189;28;20040;-67
2023/06/30 04:52:08;;;;;;;18.02;13.93;;;;;;;;;;5035452;28;20045;-68
2023/06/30 04:54:34;;;;;;;21.58;13.80;;;;;;;;;;5054965;28;20486;-68
2023/06/30 04:56:59;;;;;;;20.08;12.80;;;;;;;;;;5052387;28;20040;-68
2023/06/30 04:59:25;;;;;;;15.70;12.27;;;;;;;;;;5027558;28;20025;-67
2023/06/30 05:01:50;;;;;;;19.30;13.25;;;;;;;;;;5030652;28;20164;-68
2023/06/30 05:04:16;;;;;;;19.42;13.38;;;;;;;;;;5033586;28;20031;-67
2023/06/30 05:06:41;;;;;;;16.98;13.20;;;;;;;;;;5053438;28;20868;-68
2023/06/30 05:09:07;;;;;;;15.23;12.82;;;;;;;;;;5053620;28;20043;-67
2023/06/30 05:11:32;;;;;;;17.45;12.52;;;;;;;;;;5038976;28;20062;-67
2023/06/30 05:13:58;;;;;;;14.80;12.45;;;;;;;;;;5026172;28;20060;-68
2023/06/30 05:16:23;;;;;;;14.30;12.57;;;;;;;;;;5041464;28;20053;-67
2023/06/30 05:18:48;;;;;;;18.45;12.52;;;;;;;;;;5046072;28;20044;-67
2023/06/30 05:21:14;;;;;;;16.58;12.75;;;;;;;;;;5017849;28;20498;-67
2023/06/30 05:23:39;;;;;;;15.48;12.25;;;;;;;;;;5051777;28;20482;-68
2023/06/30 05:26:06;;;;;;;20.02;12.40;;;;;;;;;;5047646;28;20033;-67
2023/06/30 05:28:31;;;;;;;15.95;12.32;;;;;;;;;;5047932;28;20025;-68
2023/06/30 05:30:57;;;;;;;16.02;12.10;;;;;;;;;;5051343;28;20036;-68
2023/06/30 05:33:22;;;;;;;19.48;13.07;;;;;;;;;;5052259;28;20031;-68
2023/06/30 05:35:48;;;;;;;16.45;12.52;;;;;;;;;;5044453;28;21503;-68
2023/06/30 05:38:13;;;;;;;18.80;12.60;;;;;;;;;;5033344;28;20079;-67
2023/06/30 05:40:38;;;;;;;15.02;11.88;;;;;;;;;;5021319;28;20155;-68
2023/06/30 05:43:04;;;;;;;16.35;11.65;;;;;;;;;;5034316;28;20029;-68
2023/06/30 05:45:29;;;;;;;19.33;11.75;;;;;;;;;;5034805;28;20502;-67
2023/06/30 05:47:56;;;;;;;18.23;12.45;;;;;;;;;;5055501;28;20025;-67
2023/06/30 05:50:23;;;;;;;17.25;12.45;;;;;;;;;;5018435;28;20045;-67
2023/06/30 05:52:49;;;;;;;17.80;11.35;;;;;;;;;;5052073;28;20032;-68
2023/06/30 05:55:14;;;;;;;22.20;12.02;;;;;;;;;;5034010;28;20044;-67
2023/06/30 05:57:40;;;;;;;15.48;11.50;;;;;;;;;;5055176;28;20479;-67
2023/06/30 06:00:07;;;;;;;17.90;11.57;;;;;;;;;;5043872;28;20036;-68
2023/06/30 06:02:33;;;;;;;16.88;12.48;;;;;;;;;;5023163;28;20037;-68
2023/06/30 06:04:58;;;;;;;15.85;12.20;;;;;;;;;;5040370;28;20046;-67
2023/06/30 06:07:24;;;;;;;14.95;11.48;;;;;;;;;;5046996;28;20025;-68
2023/06/30 06:09:49;;;;;;;14.43;10.73;;;;;;;;;;5019874;28;20025;-54
2023/06/30 06:12:15;;;;;;;13.82;11.32;;;;;;;;;;5039909;28;20045;-69
2023/06/30 06:14:41;;;;;;;18.05;11.27;;;;;;;;;;5054752;28;20035;-68
2023/06/30 06:17:06;;;;;;;13.93;9.93;;;;;;;;;;5016406;28;20052;-70
2023/06/30 06:19:32;;;;;;;16.90;10.68;;;;;;;;;;5013162;28;20109;-69
2023/06/30 06:21:57;;;;;;;17.02;11.02;;;;;;;;;;5017192;28;20527;-72
2023/06/30 06:24:23;;;;;;;13.60;10.48;;;;;;;;;;5015887;28;20042;-71
2023/06/30 06:26:48;;;;;;;14.48;10.90;;;;;;;;;;5001293;28;20033;-70
2023/06/30 06:29:18;;;;;;;18.70;10.77;;;;;;;;;;4997218;28;20098;-72
2023/06/30 06:31:45;;;;;;;20.67;10.82;;;;;;;;;;5030417;28;20093;-73
2023/06/30 06:34:11;;;;;;;14.77;11.10;;;;;;;;;;5007802;28;20033;-74
2023/06/30 06:36:37;;;;;;;15.65;10.80;;;;;;;;;;5014710;28;20030;-72
2023/06/30 06:39:03;;;;;;;16.92;11.52;;;;;;;;;;5017931;28;20034;-72
2023/06/30 06:41:28;;;;;;;20.58;12.07;;;;;;;;;;4994703;28;20104;-74
2023/06/30 06:43:53;;;;;;;12.85;10.32;;;;;;;;;;5012874;28;20057;-73
2023/06/30 06:46:19;;;;;;;14.18;10.70;;;;;;;;;;4997829;28;20042;-73
2023/06/30 06:48:44;;;;;;;19.35;11.05;;;;;;;;;;5015225;28;20136;-71
2023/06/30 06:51:10;;;;;;;15.10;11.68;;;;;;;;;;4996550;28;20046;-71
2023/06/30 06:53:35;;;;;;;20.20;11.60;;;;;;;;;;4999949;28;20057;-71
2023/06/30 06:56:03;;;;;;;15.98;10.48;;;;;;;;;;4998684;28;20072;-71
2023/06/30 06:58:30;;;;;;;15.07;10.00;;;;;;;;;;5015310;28;20020;-72
2023/06/30 07:00:56;;;;;;;17.23;11.00;;;;;;;;;;5016432;28;20042;-70
2023/06/30 07:03:22;;;;;;;15.23;9.65;;;;;;;;;;5015205;28;20379;-71
2023/06/30 07:05:48;;;;;;;12.73;9.77;;;;;;;;;;5011822;28;20538;-71
2023/06/30 07:08:15;;;;;;;14.23;9.48;;;;;;;;;;5013973;28;20119;-72
2023/06/30 07:10:41;;;;;;;14.88;9.05;;;;;;;;;;5017129;28;20065;-71
2023/06/30 07:13:07;;;;;;;12.18;9.18;;;;;;;;;;5015844;28;20092;-73
2023/06/30 07:15:33;;;;;;;14.45;9.35;;;;;;;;;;5013982;28;20041;-70
2023/06/30 07:17:59;;;;;;;11.07;9.35;;;;;;;;;;5017369;28;20022;-70
2023/06/30 07:20:25;;;;;;;13.98;9.55;;;;;;;;;;5003908;28;20041;-71
2023/06/30 07:22:53;;;;;;;13.20;9.25;;;;;;;;;;5007940;28;20033;-71
2023/06/30 07:25:19;;;;;;;17.58;9.60;;;;;;;;;;5010180;28;20116;-71
2023/06/30 07:27:55;;;;;;;20.83;9.75;;;;;;;;;;4997988;28;20060;-71
2023/06/30 07:30:23;;;;;;;12.32;8.75;;;;;;;;;;5021821;28;20400;-70
2023/06/30 07:32:49;;;;;;;17.42;8.38;;;;;;;;;;5009988;28;20061;-69
2023/06/30 07:35:15;;;;;;;18.98;9.13;;;;;;;;;;5011597;28;20034;-71
2023/06/30 07:37:41;;;;;;;10.65;8.57;;;;;;;;;;5005101;28;20077;-68
2023/06/30 07:40:06;;;;;;;10.15;7.70;;;;;;;;;;5004852;28;20512;-69
2023/06/30 07:42:32;;;;;;;10.10;7.82;;;;;;;;;;5016596;28;20738;-67
2023/06/30 07:44:58;;;;;;;10.07;7.82;;;;;;;;;;5014522;28;20133;-68
2023/06/30 07:47:23;;;;;;;10.82;8.00;;;;;;;;;;5013437;28;20104;-69
2023/06/30 07:49:48;;;;;;;13.05;8.43;;;;;;;;;;4985741;28;20037;-69
2023/06/30 07:52:14;;;;;;;9.65;8.18;;;;;;;;;;5009727;28;20044;-67
2023/06/30 07:54:41;;;;;;;11.73;8.30;;;;;;;;;;5010133;28;20046;-69
2023/06/30 07:57:07;;;;;;;11.05;7.93;;;;;;;;;;5008200;28;20066;-68
2023/06/30 07:59:33;;;;;;;13.95;8.60;;;;;;;;;;5029361;28;20659;-67
2023/06/30 08:01:58;;;;;;;11.90;7.50;;;;;;;;;;5004716;28;20192;-67
2023/06/30 08:04:24;;;;;;;12.85;8.07;;;;;;;;;;5001728;28;20498;-67
2023/06/30 08:06:49;;;;;;;8.90;7.45;;;;;;;;;;5011978;28;20109;-68
2023/06/30 08:09:14;;;;;;;9.85;7.57;;;;;;;;;;5009153;28;20569;-68
2023/06/30 08:11:40;;;;;;;11.90;7.25;;;;;;;;;;4995816;28;20391;-68
2023/06/30 08:14:06;;;;;;;11.25;7.75;;;;;;;;;;5008032;28;20034;-67
2023/06/30 08:16:32;;;;;;;10.95;7.80;;;;;;;;;;5032948;28;20048;-68
2023/06/30 08:18:57;;;;;;;8.20;7.22;;;;;;;;;;5010055;28;20039;-67
2023/06/30 08:21:23;;;;;;;8.75;7.43;;;;;;;;;;5043926;28;20040;-68
2023/06/30 08:23:48;;;;;;;9.27;7.53;;;;;;;;;;5049077;28;20434;-67
2023/06/30 08:26:14;;;;;;;7.90;7.15;;;;;;;;;;5051154;28;20560;-67
2023/06/30 08:28:40;;;;;;;8.25;7.43;;;;;;;;;;5050839;28;20387;-68
2023/06/30 08:31:05;;;;;;;8.77;7.82;;;;;;;;;;5047098;28;20041;-67
2023/06/30 08:33:31;;;;;;;9.70;7.80;;;;;;;;;;5055157;28;20040;-68
2023/06/30 08:35:56;;;;;;;11.52;8.55;;;;;;;;;;5030553;28;20659;-67
2023/06/30 08:38:22;;;;;;;11.82;8.13;;;;;;;;;;5055464;28;20028;-70
2023/06/30 08:40:47;;;;;;;9.18;6.47;;;;;;;;;;5052993;28;20549;-71
2023/06/30 08:43:13;;;;;;;27.70;9.68;;;;;;;;;;5032275;28;20025;-75
2023/06/30 08:45:44;;;;;;;19.70;9.38;;;;;;;;;;5055051;28;20798;-76
2023/06/30 08:48:12;;;;;;;;;;;;;;;;;;5048624;28;20029;-71
2023/06/30 08:50:40;;;;;;;13.82;8.93;;;;;;;;;;5053722;28;19963;-72
2023/06/30 08:53:05;;;;;;;20.02;10.23;;;;;;;;;;5021809;28;20033;-70
2023/06/30 08:55:31;;;;;;;17.70;9.15;;;;;;;;;;5036962;28;20048;-73
2023/06/30 08:57:57;;;;;;;17.33;10.07;;;;;;;;;;5050710;28;20025;-71
2023/06/30 09:00:23;;;;;;;19.35;10.95;;;;;;;;;;5051230;28;20400;-69
2023/06/30 09:02:50;;;;;;;13.00;8.68;;;;;;;;;;5040040;28;20029;-70
2023/06/30 09:05:15;;;;;;;15.88;10.23;;;;;;;;;;5035683;28;20781;-72
2023/06/30 09:07:49;;;;;;;15.95;10.57;;;;;;;;;;5035166;28;20021;-71
2023/06/30 09:10:15;;;;;;;16.42;9.52;;;;;;;;;;5050296;28;20033;-70
2023/06/30 09:12:44;;;;;;;19.33;10.20;;;;;;;;;;5054935;28;20029;-71
2023/06/30 09:15:10;;;;;;;13.27;9.48;;;;;;;;;;5040663;28;20037;-70
2023/06/30 09:17:35;;;;;;;12.63;9.05;;;;;;;;;;5036145;28;20025;-73
2023/06/30 09:20:01;;;;;;;15.02;9.50;;;;;;;;;;5040667;28;20047;-72
2023/06/30 09:22:26;;;;;;;13.05;9.15;;;;;;;;;;5031669;28;20033;-72
2023/06/30 09:24:53;;;;;;;13.82;9.40;;;;;;;;;;5045404;28;20052;-74
2023/06/30 09:27:19;;;;;;;13.38;9.30;;;;;;;;;;5044486;28;20079;-72
2023/06/30 09:29:55;;;;;;;12.32;8.52;;;;;;;;;;5039388;28;20029;-73
2023/06/30 09:32:31;;;;;;;17.13;9.02;;;;;;;;;;5058921;28;20094;-73
2023/06/30 09:35:00;;;;;;;12.70;8.55;;;;;;;;;;5032403;28;20041;-71
2023/06/30 09:37:25;;;;;;;10.27;8.60;;;;;;;;;;5056452;28;20025;-74
2023/06/30 09:39:51;;;;;;;10.40;8.40;;;;;;;;;;5054388;28;20067;-71
2023/06/30 09:42:18;;;;;;;10.90;7.93;;;;;;;;;;5024866;28;20078;-74
2023/06/30 09:44:43;;;;;;;12.80;7.95;;;;;;;;;;5057509;28;20510;-72
2023/06/30 09:47:12;;;;;;;10.93;7.35;;;;;;;;;;5056670;28;20040;-72
2023/06/30 09:49:39;;;;;;;9.32;6.90;;;;;;;;;;5034923;28;20033;-73
2023/06/30 09:52:05;;;;;;;9.20;6.80;;;;;;;;;;5052408;28;20501;-72
2023/06/30 09:54:33;;;;;;;9.95;6.68;;;;;;;;;;5051100;28;20505;-72
2023/06/30 09:57:03;;;;;;;9.60;6.82;;;;;;;;;;5056909;28;20036;-72
2023/06/30 09:59:29;;;;;;;6.75;6.05;;;;;;;;;;5056790;28;20074;-71
2023/06/30 10:01:55;;;;;;;7.40;6.03;;;;;;;;;;5039608;28;20654;-72
2023/06/30 10:04:22;;;;;;;8.15;6.18;;;;;;;;;;5056159;28;20054;-72
2023/06/30 10:06:50;;;;;;;7.80;5.65;;;;;;;;;;5036706;28;20095;-72
2023/06/30 10:09:16;;;;;;;8.40;6.40;;;;;;;;;;5059150;28;20163;-74
2023/06/30 10:11:44;;;;;;;10.15;6.85;;;;;;;;;;5037063;28;20446;-72
2023/06/30 10:14:13;;;;;;;10.02;7.00;;;;;;;;;;5050985;28;20025;-72
2023/06/30 10:16:39;;;;;;;10.52;7.38;;;;;;;;;;5037234;28;20098;-72
2023/06/30 10:19:05;;;;;;;9.13;7.10;;;;;;;;;;5031214;28;20053;-73
2023/06/30 10:21:32;;;;;;;10.45;7.13;;;;;;;;;;5043367;28;20044;-71
2023/06/30 10:24:01;;;;;;;10.02;6.57;;;;;;;;;;5037780;28;20479;-71
2023/06/30 10:26:27;;;;;;;12.80;6.43;;;;;;;;;;5053748;28;20048;-73
2023/06/30 10:28:53;;;;;;;9.45;6.70;;;;;;;;;;5044678;28;20100;-71
2023/06/30 10:31:19;;;;;;;8.73;6.55;;;;;;;;;;5057601;28;20033;-71
2023/06/30 10:33:45;;;;;;;6.50;5.70;;;;;;;;;;5056505;28;20029;-71
2023/06/30 10:36:12;;;;;;;6.85;5.32;;;;;;;;;;5036216;28;20139;-72
2023/06/30 10:38:37;;;;;;;9.00;5.60;;;;;;;;;;5026262;28;20068;-72
2023/06/30 10:41:19;;;;;;;6.97;4.95;;;;;;;;;;5037664;28;20041;-72
2023/06/30 10:44:00;;;;;;;7.68;4.47;;;;;;;;;;5054065;28;20454;-72
2023/06/30 10:46:49;;;;;;;4.40;3.50;;;;;;;;;;5053522;28;20041;-73
2023/06/30 10:49:27;;;;;;;3.55;3.10;;;;;;;;;;5041787;28;20091;-74
2023/06/30 10:51:54;;;;;;;3.40;3.10;;;;;;;;;;5034643;28;20380;-73
2023/06/30 10:54:22;;;;;;;4.47;3.47;;;;;;;;;;5036972;28;20036;-74
2023/06/30 10:56:52;;;;;;;5.00;3.70;;;;;;;;;;5033280;28;20029;-73
2023/06/30 10:59:23;;;;;;;4.05;3.38;;;;;;;;;;5053635;28;20025;-73
2023/06/30 11:02:13;;;;;;;4.20;3.60;;;;;;;;;;5049984;28;20037;-75
2023/06/30 11:04:41;;;;;;;3.45;3.15;;;;;;;;;;5052656;28;20048;-76
2023/06/30 11:07:07;;;;;;;3.67;3.38;;;;;;;;;;5056121;28;20079;-74
2023/06/30 11:09:50;;;;;;;4.43;4.03;;;;;;;;;;5041588;28;20032;-74
2023/06/30 11:12:16;;;;;;;4.38;3.72;;;;;;;;;;5040952;28;20057;-76
2023/06/30 11:14:59;;;;;;;5.70;3.42;;;;;;;;;;5054680;28;20112;-75
2023/06/30 11:17:45;;;;;;;3.80;3.50;;;;;;;;;;5056114;28;20072;-74
2023/06/30 11:20:12;;;;;;;4.03;3.63;;;;;;;;;;5030508;28;20430;-73
2023/06/30 11:22:39;;;;;;;4.90;3.45;;;;;;;;;;5030200;28;20025;-75
2023/06/30 11:25:08;;;;;;;3.80;3.40;;;;;;;;;;5052538;28;20115;-74
2023/06/30 11:27:34;;;;;;;3.78;3.10;;;;;;;;;;5057273;28;20024;-73
2023/06/30 11:30:00;;;;;;;4.13;3.40;;;;;;;;;;5038042;28;20100;-72
2023/06/30 11:32:28;;;;;;;3.63;3.30;;;;;;;;;;5050621;28;20120;-74
2023/06/30 11:34:55;;;;;;;5.85;3.70;;;;;;;;;;5027328;28;20028;-74
2023/06/30 11:37:21;;;;;;;3.75;3.45;;;;;;;;;;5055419;28;20029;-75
2023/06/30 11:39:58;;;;;;;8.10;3.90;;;;;;;;;;5039726;28;20436;-74
2023/06/30 11:42:24;;;;;;;5.18;3.80;;;;;;;;;;5053861;28;20052;-73
2023/06/30 11:44:49;;;;;;;4.35;3.95;;;;;;;;;;5036633;28;20382;-73
2023/06/30 11:47:16;;;;;;;6.82;4.85;;;;;;;;;;5045872;28;20044;-72
2023/06/30 11:49:41;;;;;;;5.05;4.55;;;;;;;;;;5052306;28;20394;-76
2023/06/30 11:52:07;;;;;;;5.47;4.97;;;;;;;;;;5021245;28;20041;-73
2023/06/30 11:54:33;;;;;;;7.50;5.30;;;;;;;;;;5029013;28;20029;-75
2023/06/30 11:56:59;;;;;;;7.55;5.25;;;;;;;;;;5032963;28;20037;-75
2023/06/30 11:59:25;;;;;;;9.43;5.82;;;;;;;;;;5054761;28;20087;-76
2023/06/30 12:01:52;;;;;;;8.82;6.22;;;;;;;;;;5038469;28;20040;-75
2023/06/30 12:04:17;;;;;;;8.50;5.80;;;;;;;;;;5050881;28;20421;-75
2023/06/30 12:06:46;;;;;;;5.93;5.22;;;;;;;;;;5053135;28;20041;-76
2023/06/30 12:09:11;;;;;;;6.47;5.75;;;;;;;;;;5042965;28;20112;-76
2023/06/30 12:11:41;;;;;;;7.03;5.50;;;;;;;;;;5050545;28;20053;-75
2023/06/30 12:14:10;;;;;;;9.30;6.15;;;;;;;;;;5052987;28;20028;-75
2023/06/30 12:16:48;;;;;;;7.70;6.18;;;;;;;;;;5035614;28;20798;-73
2023/06/30 12:19:13;;;;;;;8.40;6.40;;;;;;;;;;5022407;28;20029;-74
2023/06/30 12:22:01;;;;;;;8.27;6.05;;;;;;;;;;5050235;28;20040;-73
2023/06/30 12:24:30;;;;;;;8.30;6.57;;;;;;;;;;5051744;28;20024;-76
2023/06/30 12:26:56;;;;;;;6.80;6.10;;;;;;;;;;5041925;28;20076;-76
2023/06/30 12:29:22;;;;;;;8.50;6.78;;;;;;;;;;5018975;28;20025;-76
2023/06/30 12:31:48;;;;;;;8.45;6.18;;;;;;;;;;5049288;28;20132;-73
2023/06/30 12:34:31;;;;;;;9.30;7.05;;;;;;;;;;5020070;28;20501;-76
2023/06/30 12:36:57;;;;;;;10.68;7.28;;;;;;;;;;5049986;28;20033;-76
2023/06/30 12:39:23;;;;;;;9.18;7.25;;;;;;;;;;5046397;28;20029;-74
2023/06/30 12:41:48;;;;;;;7.75;6.30;;;;;;;;;;5031888;28;20052;-76
2023/06/30 12:44:14;;;;;;;8.00;6.25;;;;;;;;;;5037625;28;20029;-75
2023/06/30 12:46:41;;;;;;;11.63;6.40;;;;;;;;;;5044815;28;22331;-77
2023/06/30 12:49:06;;;;;;;9.00;6.80;;;;;;;;;;5044658;28;20562;-74
2023/06/30 12:51:32;;;;;;;7.68;6.65;;;;;;;;;;5053133;28;20072;-75
2023/06/30 12:53:58;;;;;;;10.48;6.95;;;;;;;;;;5029618;28;20057;-75
2023/06/30 12:56:25;;;;;;;6.03;5.35;;;;;;;;;;5043954;28;20037;-74
2023/06/30 12:58:50;;;;;;;10.85;6.78;;;;;;;;;;5020558;28;20028;-73
2023/06/30 13:01:16;;;;;;;7.53;6.10;;;;;;;;;;5018455;28;20487;-73
2023/06/30 13:03:41;;;;;;;10.13;6.90;;;;;;;;;;5037941;28;20036;-75
2023/06/30 13:06:07;;;;;;;7.10;6.13;;;;;;;;;;5049105;28;20045;-73
2023/06/30 13:08:32;;;;;;;12.10;6.15;;;;;;;;;;5034122;28;20029;-73
2023/06/30 13:10:58;;;;;;;8.23;5.93;;;;;;;;;;4998858;28;20037;-73
2023/06/30 13:13:23;;;;;;;6.97;6.15;;;;;;;;;;5057481;28;20079;-73
2023/06/30 13:15:49;;;;;;;8.60;5.82;;;;;;;;;;5042792;28;20104;-74
2023/06/30 13:18:14;;;;;;;6.95;5.55;;;;;;;;;;4996930;28;20030;-72
2023/06/30 13:20:39;;;;;;;7.50;6.10;;;;;;;;;;5012835;28;20054;-74
2023/06/30 13:23:05;;;;;;;7.65;6.22;;;;;;;;;;5016543;28;20037;-74
2023/06/30 13:25:30;;;;;;;10.30;6.35;;;;;;;;;;5009425;28;20495;-71
2023/06/30 13:27:56;;;;;;;9.27;6.18;;;;;;;;;;4996514;28;20491;-74
2023/06/30 13:30:21;;;;;;;8.63;6.22;;;;;;;;;;5015528;28;20113;-77
2023/06/30 13:32:46;;;;;;;9.13;6.63;;;;;;;;;;5012049;28;20506;-73
2023/06/30 13:35:12;;;;;;;9.18;7.03;;;;;;;;;;5024356;28;20587;-73
2023/06/30 13:37:37;;;;;;;7.93;5.35;;;;;;;;;;5013549;28;20117;-73
2023/06/30 13:40:04;;;;;;;6.78;5.85;;;;;;;;;;5011830;28;20096;-72
2023/06/30 13:42:30;;;;;;;6.63;5.97;;;;;;;;;;5011341;28;20026;-72
2023/06/30 13:44:56;;;;;;;6.30;5.55;;;;;;;;;;5006647;28;20398;-72
2023/06/30 13:47:21;;;;;;;7.40;5.35;;;;;;;;;;5015656;28;20025;-72
2023/06/30 13:49:47;;;;;;;7.35;6.22;;;;;;;;;;5013457;28;20438;-74
2023/06/30 13:52:12;;;;;;;8.43;5.53;;;;;;;;;;5013018;28;20399;-72
2023/06/30 13:54:38;;;;;;;7.38;6.10;;;;;;;;;;5008927;28;20439;-72
2023/06/30 13:57:03;;;;;;;6.65;5.70;;;;;;;;;;5011275;28;20026;-73
2023/06/30 13:59:29;;;;;;;7.03;5.30;;;;;;;;;;4995109;28;20471;-74
2023/06/30 14:01:54;;;;;;;6.03;5.38;;;;;;;;;;5011680;28;20038;-72
2023/06/30 14:04:20;;;;;;;7.10;5.60;;;;;;;;;;5011589;28;20026;-74
2023/06/30 14:06:45;;;;;;;8.77;5.55;;;;;;;;;;5024991;28;20476;-74
2023/06/30 14:09:11;;;;;;;7.20;5.55;;;;;;;;;;4997540;28;20033;-73
2023/06/30 14:11:37;;;;;;;7.35;5.57;;;;;;;;;;5015270;28;20041;-72
2023/06/30 14:14:03;;;;;;;5.82;5.22;;;;;;;;;;4997154;28;20033;-72
2023/06/30 14:16:29;;;;;;;8.90;5.50;;;;;;;;;;5008803;28;20415;-71
2023/06/30 14:18:55;;;;;;;6.85;5.43;;;;;;;;;;5024082;28;20025;-74
2023/06/30 14:21:20;;;;;;;7.60;5.13;;;;;;;;;;5006640;28;20158;-73
2023/06/30 14:23:46;;;;;;;6.82;6.10;;;;;;;;;;5025400;28;20065;-75
2023/06/30 14:26:11;;;;;;;6.97;5.57;;;;;;;;;;5009041;28;20065;-75